Pagrindinis puslapis
METAR-TAF:

METAR-TAF

Oro uostai :

Ras al Chaima, Jungtiniai Arabų Emyratai

platuma: 25-37N, ilguma: 055-56E, Aukštis: 31 m

Dabartinis oras

Ataskaita buvo paskelbta 1 valandą ir 2 minutes, ne 06:00 UTC
Vėjas 4 kt nuo kintamojo kryptimis
Temperatūra 42°C
Drėgmė 22%
Slėgis 998 hPa
Matomumas: 8000 m

METAR: OMRK 090600Z VRB04KT 8000 NSC 42/16 Q0998 A2948

Laikas: 11:02 (07:02 UTC)

Prognozė

Ataskaita buvo paskelbta 2 valandos ir 10 minutes, ne 04:52 UTC
Prognozė galioja nuo 09 metu 06 UTC su 10 metu 12 UTC
Vėjas 2 kt nuo kintamojo kryptimis
Matomumas: 8000 m
Tikimybė 30%
nuo 09 metu 06 UTC su 09 metu 10 UTC
Matomumas: 4000 m
dulkės
Tapsmas
nuo 09 metu 08 UTC su 09 metu 10 UTC
Vėjas 14 kt iš Šiaurės/Šiaurės Vakarų
Tapsmas
nuo 09 metu 15 UTC su 09 metu 17 UTC
Vėjas 2 kt nuo kintamojo kryptimis
Tapsmas
nuo 10 metu 06 UTC su 10 metu 08 UTC
Vėjas 12 kt iš Vakarų/Šiaurės Vakarų

TAF: OMRK 090452Z 0906/1012 VRB02KT 8000 NSC PROB30 0906/0910 4000 DU BECMG 0908/0910 34014KT BECMG 0915/0917 VRB02KT BECMG 1006/1008 30012KT

Orai ataskaitas ir orų prognozės (METAR, TAF).

turimą stotys yra geltonos ir raudonos taškus žemėlapyje.

Perkelti pele per norėdami pamatyti stoties vardą.

Tada spustelėkite, norėdami matyti oro stebėjimo ir prognozės.

Norėdami pakeisti žemėlapį: spustelėkite ant žalios mygtukų su juodo kryžiaus žemyn,; žalią mygtuką su brūkšneliu, jei norite nutolinti; arba žalių rodyklių gretimoms žemėlapius.


METAR-TAF: